sensor_id;sensor_type;location;lat;lon;timestamp;pressure;altitude;pressure_sealevel;temperature;humidity
50518;BME280;37075;44.084;2.962;2024-01-06T00:00:45;96793.63;;;8.64;60.08
50518;BME280;37075;44.084;2.962;2024-01-06T00:03:33;96793.53;;;8.61;60.22
50518;BME280;37075;44.084;2.962;2024-01-06T00:06:19;96801.44;;;8.66;60.03
50518;BME280;37075;44.084;2.962;2024-01-06T00:09:06;96789.09;;;8.69;59.73
50518;BME280;37075;44.084;2.962;2024-01-06T00:11:52;96799.03;;;8.77;59.90
50518;BME280;37075;44.084;2.962;2024-01-06T00:14:39;96798.94;;;8.73;59.86
50518;BME280;37075;44.084;2.962;2024-01-06T00:17:28;96795.91;;;8.62;59.43
50518;BME280;37075;44.084;2.962;2024-01-06T00:20:14;96794.09;;;8.54;59.55
50518;BME280;37075;44.084;2.962;2024-01-06T00:23:00;96796.47;;;8.56;59.38
50518;BME280;37075;44.084;2.962;2024-01-06T00:25:47;96797.41;;;8.48;59.01
50518;BME280;37075;44.084;2.962;2024-01-06T00:28:34;96791.66;;;8.37;59.21
50518;BME280;37075;44.084;2.962;2024-01-06T00:31:20;96801.09;;;8.31;58.81
50518;BME280;37075;44.084;2.962;2024-01-06T00:34:06;96799.53;;;8.18;59.02
50518;BME280;37075;44.084;2.962;2024-01-06T00:36:52;96801.59;;;8.09;58.29
50518;BME280;37075;44.084;2.962;2024-01-06T00:39:38;96804.50;;;8.03;57.97
50518;BME280;37075;44.084;2.962;2024-01-06T00:42:26;96804.97;;;7.93;57.46
50518;BME280;37075;44.084;2.962;2024-01-06T00:45:12;96798.75;;;7.93;57.99
50518;BME280;37075;44.084;2.962;2024-01-06T00:47:58;96796.81;;;7.81;57.00
50518;BME280;37075;44.084;2.962;2024-01-06T00:50:43;96812.84;;;7.74;56.90
50518;BME280;37075;44.084;2.962;2024-01-06T00:53:29;96805.16;;;7.76;57.40
50518;BME280;37075;44.084;2.962;2024-01-06T00:56:15;96801.56;;;7.84;57.28
50518;BME280;37075;44.084;2.962;2024-01-06T00:59:02;96801.22;;;7.73;56.78
50518;BME280;37075;44.084;2.962;2024-01-06T01:01:48;96805.41;;;7.71;56.47
50518;BME280;37075;44.084;2.962;2024-01-06T01:04:34;96811.16;;;7.57;56.12
50518;BME280;37075;44.084;2.962;2024-01-06T01:07:20;96803.75;;;7.46;57.16
50518;BME280;37075;44.084;2.962;2024-01-06T01:10:07;96814.81;;;7.40;56.62
50518;BME280;37075;44.084;2.962;2024-01-06T01:12:54;96812.09;;;7.40;57.01
50518;BME280;37075;44.084;2.962;2024-01-06T01:15:41;96805.31;;;7.34;56.59
50518;BME280;37075;44.084;2.962;2024-01-06T01:18:27;96822.97;;;7.40;56.66
50518;BME280;37075;44.084;2.962;2024-01-06T01:21:14;96824.97;;;7.31;56.47
50518;BME280;37075;44.084;2.962;2024-01-06T01:24:00;96821.25;;;7.36;56.58
50518;BME280;37075;44.084;2.962;2024-01-06T01:26:47;96821.81;;;7.29;56.21
50518;BME280;37075;44.084;2.962;2024-01-06T01:29:33;96826.84;;;7.19;56.16
50518;BME280;37075;44.084;2.962;2024-01-06T01:32:20;96821.75;;;7.17;56.41
50518;BME280;37075;44.084;2.962;2024-01-06T01:35:06;96828.97;;;7.13;56.35
50518;BME280;37075;44.084;2.962;2024-01-06T01:37:52;96827.31;;;7.00;56.72
50518;BME280;37075;44.084;2.962;2024-01-06T01:40:38;96823.34;;;6.97;56.88
50518;BME280;37075;44.084;2.962;2024-01-06T01:43:24;96829.56;;;6.98;57.04
50518;BME280;37075;44.084;2.962;2024-01-06T01:46:11;96830.19;;;7.03;56.99
50518;BME280;37075;44.084;2.962;2024-01-06T01:49:00;96839.69;;;7.09;56.66
50518;BME280;37075;44.084;2.962;2024-01-06T01:51:47;96846.69;;;7.10;56.80
50518;BME280;37075;44.084;2.962;2024-01-06T01:54:33;96855.66;;;7.02;56.99
50518;BME280;37075;44.084;2.962;2024-01-06T01:57:20;96875.19;;;6.96;57.32
50518;BME280;37075;44.084;2.962;2024-01-06T02:00:11;96881.81;;;6.86;57.77
50518;BME280;37075;44.084;2.962;2024-01-06T02:02:58;96886.16;;;6.78;58.27
50518;BME280;37075;44.084;2.962;2024-01-06T02:05:46;96878.38;;;6.77;58.48
50518;BME280;37075;44.084;2.962;2024-01-06T02:08:32;96884.59;;;6.77;58.51
50518;BME280;37075;44.084;2.962;2024-01-06T02:11:18;96877.53;;;6.76;58.52
50518;BME280;37075;44.084;2.962;2024-01-06T02:14:04;96870.03;;;6.82;58.34
50518;BME280;37075;44.084;2.962;2024-01-06T02:16:50;96875.78;;;6.80;58.39
50518;BME280;37075;44.084;2.962;2024-01-06T02:19:36;96871.97;;;6.82;58.39
50518;BME280;37075;44.084;2.962;2024-01-06T02:22:23;96883.47;;;6.78;58.58
50518;BME280;37075;44.084;2.962;2024-01-06T02:25:10;96879.66;;;6.71;58.97
50518;BME280;37075;44.084;2.962;2024-01-06T02:27:58;96873.91;;;6.72;59.29
50518;BME280;37075;44.084;2.962;2024-01-06T02:30:44;96877.88;;;6.75;59.20
50518;BME280;37075;44.084;2.962;2024-01-06T02:33:29;96873.25;;;6.75;59.38
50518;BME280;37075;44.084;2.962;2024-01-06T02:36:15;96875.16;;;6.75;59.59
50518;BME280;37075;44.084;2.962;2024-01-06T02:39:03;96868.63;;;6.76;59.67
50518;BME280;37075;44.084;2.962;2024-01-06T02:41:49;96871.34;;;6.76;59.67
50518;BME280;37075;44.084;2.962;2024-01-06T02:44:34;96873.41;;;6.79;59.62
50518;BME280;37075;44.084;2.962;2024-01-06T02:47:20;96887.00;;;6.70;59.89
50518;BME280;37075;44.084;2.962;2024-01-06T02:50:07;96876.63;;;6.72;60.16
50518;BME280;37075;44.084;2.962;2024-01-06T02:52:53;96863.69;;;6.78;60.02
50518;BME280;37075;44.084;2.962;2024-01-06T02:55:40;96871.81;;;6.78;59.85
50518;BME280;37075;44.084;2.962;2024-01-06T02:58:26;96873.09;;;6.80;59.85
50518;BME280;37075;44.084;2.962;2024-01-06T03:01:12;96863.69;;;6.78;59.92
50518;BME280;37075;44.084;2.962;2024-01-06T03:03:58;96868.94;;;6.74;59.92
50518;BME280;37075;44.084;2.962;2024-01-06T03:06:44;96864.84;;;6.68;60.08
50518;BME280;37075;44.084;2.962;2024-01-06T03:09:33;96867.44;;;6.65;60.40
50518;BME280;37075;44.084;2.962;2024-01-06T03:12:20;96872.06;;;6.64;60.24
50518;BME280;37075;44.084;2.962;2024-01-06T03:15:06;96877.16;;;6.66;60.17
50518;BME280;37075;44.084;2.962;2024-01-06T03:17:52;96880.00;;;6.69;60.08
50518;BME280;37075;44.084;2.962;2024-01-06T03:20:38;96881.13;;;6.68;60.08
50518;BME280;37075;44.084;2.962;2024-01-06T03:23:24;96883.16;;;6.71;60.02
50518;BME280;37075;44.084;2.962;2024-01-06T03:26:11;96877.41;;;6.73;60.01
50518;BME280;37075;44.084;2.962;2024-01-06T03:28:59;96879.16;;;6.77;59.87
50518;BME280;37075;44.084;2.962;2024-01-06T03:31:47;96890.31;;;6.76;59.93
50518;BME280;37075;44.084;2.962;2024-01-06T03:34:33;96901.47;;;6.74;59.80
50518;BME280;37075;44.084;2.962;2024-01-06T03:37:19;96885.88;;;6.71;59.72
50518;BME280;37075;44.084;2.962;2024-01-06T03:40:08;96888.25;;;6.73;59.80
50518;BME280;37075;44.084;2.962;2024-01-06T03:42:54;96885.53;;;6.73;59.76
50518;BME280;37075;44.084;2.962;2024-01-06T03:45:41;96890.00;;;6.77;59.53
50518;BME280;37075;44.084;2.962;2024-01-06T03:48:28;96884.09;;;6.75;59.39
50518;BME280;37075;44.084;2.962;2024-01-06T03:51:14;96883.28;;;6.75;59.55
50518;BME280;37075;44.084;2.962;2024-01-06T03:54:00;96891.28;;;6.71;59.43
50518;BME280;37075;44.084;2.962;2024-01-06T03:56:46;96883.97;;;6.72;59.42
50518;BME280;37075;44.084;2.962;2024-01-06T03:59:32;96897.84;;;6.70;59.38
50518;BME280;37075;44.084;2.962;2024-01-06T04:02:19;96895.78;;;6.67;59.35
50518;BME280;37075;44.084;2.962;2024-01-06T04:05:05;96902.13;;;6.71;59.25
50518;BME280;37075;44.084;2.962;2024-01-06T04:07:51;96897.69;;;6.67;59.51
50518;BME280;37075;44.084;2.962;2024-01-06T04:10:37;96902.78;;;6.68;59.49
50518;BME280;37075;44.084;2.962;2024-01-06T04:13:24;96895.47;;;6.69;59.27
50518;BME280;37075;44.084;2.962;2024-01-06T04:16:10;96902.31;;;6.66;59.18
50518;BME280;37075;44.084;2.962;2024-01-06T04:18:57;96905.16;;;6.70;59.27
50518;BME280;37075;44.084;2.962;2024-01-06T04:21:43;96904.09;;;6.62;59.27
50518;BME280;37075;44.084;2.962;2024-01-06T04:24:29;96906.03;;;6.62;59.12
50518;BME280;37075;44.084;2.962;2024-01-06T04:27:15;96912.09;;;6.59;59.35
50518;BME280;37075;44.084;2.962;2024-01-06T04:30:01;96905.63;;;6.51;59.42
50518;BME280;37075;44.084;2.962;2024-01-06T04:32:48;96917.41;;;6.46;59.09
50518;BME280;37075;44.084;2.962;2024-01-06T04:35:36;96909.91;;;6.52;59.23
50518;BME280;37075;44.084;2.962;2024-01-06T04:38:22;96915.34;;;6.52;59.06
50518;BME280;37075;44.084;2.962;2024-01-06T04:41:08;96917.53;;;6.50;59.14
50518;BME280;37075;44.084;2.962;2024-01-06T04:43:53;96915.66;;;6.51;59.27
50518;BME280;37075;44.084;2.962;2024-01-06T04:46:40;96918.66;;;6.49;59.31
50518;BME280;37075;44.084;2.962;2024-01-06T04:49:26;96938.28;;;6.46;59.38
50518;BME280;37075;44.084;2.962;2024-01-06T04:52:13;96934.31;;;6.43;59.52
50518;BME280;37075;44.084;2.962;2024-01-06T04:55:00;96939.59;;;6.40;59.93
50518;BME280;37075;44.084;2.962;2024-01-06T04:57:46;96932.78;;;6.34;59.56
50518;BME280;37075;44.084;2.962;2024-01-06T05:00:32;96943.41;;;6.39;59.30
50518;BME280;37075;44.084;2.962;2024-01-06T05:03:20;96938.28;;;6.46;59.46
50518;BME280;37075;44.084;2.962;2024-01-06T05:06:06;96938.59;;;6.44;59.31
50518;BME280;37075;44.084;2.962;2024-01-06T05:08:53;96943.88;;;6.41;59.56
50518;BME280;37075;44.084;2.962;2024-01-06T05:11:39;96946.09;;;6.47;59.10
50518;BME280;37075;44.084;2.962;2024-01-06T05:14:25;96951.50;;;6.47;59.06
50518;BME280;37075;44.084;2.962;2024-01-06T05:17:11;96949.13;;;6.46;58.80
50518;BME280;37075;44.084;2.962;2024-01-06T05:19:57;96961.41;;;6.43;58.80
50518;BME280;37075;44.084;2.962;2024-01-06T05:22:45;96957.28;;;6.37;58.72
50518;BME280;37075;44.084;2.962;2024-01-06T05:25:32;96959.38;;;6.32;58.68
50518;BME280;37075;44.084;2.962;2024-01-06T05:28:18;96969.44;;;6.23;58.77
50518;BME280;37075;44.084;2.962;2024-01-06T05:31:04;96970.59;;;6.13;59.07
50518;BME280;37075;44.084;2.962;2024-01-06T05:33:50;96973.44;;;6.16;59.00
50518;BME280;37075;44.084;2.962;2024-01-06T05:36:36;96976.31;;;6.11;58.90
50518;BME280;37075;44.084;2.962;2024-01-06T05:39:21;96983.19;;;6.09;59.02
50518;BME280;37075;44.084;2.962;2024-01-06T05:42:10;96977.16;;;6.03;58.99
50518;BME280;37075;44.084;2.962;2024-01-06T05:44:57;96986.06;;;5.95;59.10
50518;BME280;37075;44.084;2.962;2024-01-06T05:47:42;96985.44;;;5.81;59.32
50518;BME280;37075;44.084;2.962;2024-01-06T05:50:29;96984.63;;;5.72;59.46
50518;BME280;37075;44.084;2.962;2024-01-06T05:53:15;96985.13;;;5.74;59.62
50518;BME280;37075;44.084;2.962;2024-01-06T05:56:03;96984.31;;;5.82;59.49
50518;BME280;37075;44.084;2.962;2024-01-06T05:58:50;96979.06;;;5.85;59.34
50518;BME280;37075;44.084;2.962;2024-01-06T06:01:36;96981.91;;;5.89;58.94
50518;BME280;37075;44.084;2.962;2024-01-06T06:04:22;96984.63;;;5.89;58.79
50518;BME280;37075;44.084;2.962;2024-01-06T06:07:08;96988.13;;;5.81;58.92
50518;BME280;37075;44.084;2.962;2024-01-06T06:09:54;96991.97;;;5.80;58.95
50518;BME280;37075;44.084;2.962;2024-01-06T06:12:40;96989.41;;;5.75;59.19
50518;BME280;37075;44.084;2.962;2024-01-06T06:15:27;96983.03;;;5.71;59.15
50518;BME280;37075;44.084;2.962;2024-01-06T06:18:13;96988.75;;;5.69;59.26
50518;BME280;37075;44.084;2.962;2024-01-06T06:20:59;96992.44;;;5.65;59.54
50518;BME280;37075;44.084;2.962;2024-01-06T06:23:45;96988.47;;;5.53;59.38
50518;BME280;37075;44.084;2.962;2024-01-06T06:26:31;96995.94;;;5.39;59.74
50518;BME280;37075;44.084;2.962;2024-01-06T06:29:17;96994.97;;;5.44;59.48
50518;BME280;37075;44.084;2.962;2024-01-06T06:32:07;96999.91;;;5.42;59.66
50518;BME280;37075;44.084;2.962;2024-01-06T06:34:53;96999.75;;;5.38;59.54
50518;BME280;37075;44.084;2.962;2024-01-06T06:37:39;97000.22;;;5.40;59.51
50518;BME280;37075;44.084;2.962;2024-01-06T06:40:25;97000.88;;;5.37;59.35
50518;BME280;37075;44.084;2.962;2024-01-06T06:43:11;97000.38;;;5.35;59.56
50518;BME280;37075;44.084;2.962;2024-01-06T06:45:57;97003.41;;;5.34;59.48
50518;BME280;37075;44.084;2.962;2024-01-06T06:48:44;97012.94;;;5.31;59.34
50518;BME280;37075;44.084;2.962;2024-01-06T06:51:30;97014.22;;;5.25;59.64
50518;BME280;37075;44.084;2.962;2024-01-06T06:54:16;97014.84;;;5.22;59.46
50518;BME280;37075;44.084;2.962;2024-01-06T06:57:02;97020.06;;;5.18;59.60
50518;BME280;37075;44.084;2.962;2024-01-06T06:59:49;97025.63;;;5.13;60.29
50518;BME280;37075;44.084;2.962;2024-01-06T07:02:35;97027.69;;;4.99;60.72
50518;BME280;37075;44.084;2.962;2024-01-06T07:05:22;97029.91;;;4.97;61.10
50518;BME280;37075;44.084;2.962;2024-01-06T07:08:08;97044.53;;;5.05;61.10
50518;BME280;37075;44.084;2.962;2024-01-06T07:10:54;97030.09;;;5.18;60.88
50518;BME280;37075;44.084;2.962;2024-01-06T07:13:41;97029.34;;;5.26;60.88
50518;BME280;37075;44.084;2.962;2024-01-06T07:16:26;97040.63;;;5.28;60.66
50518;BME280;37075;44.084;2.962;2024-01-06T07:19:12;97036.81;;;5.29;60.59
50518;BME280;37075;44.084;2.962;2024-01-06T07:22:00;97035.06;;;5.24;60.79
50518;BME280;37075;44.084;2.962;2024-01-06T07:24:46;97037.75;;;5.24;60.60
50518;BME280;37075;44.084;2.962;2024-01-06T07:27:32;97041.88;;;5.22;60.56
50518;BME280;37075;44.084;2.962;2024-01-06T07:30:18;97043.59;;;5.09;61.19
50518;BME280;37075;44.084;2.962;2024-01-06T07:33:04;97051.69;;;5.01;61.59
50518;BME280;37075;44.084;2.962;2024-01-06T07:35:50;97053.28;;;5.02;61.62
50518;BME280;37075;44.084;2.962;2024-01-06T07:38:37;97053.59;;;5.09;61.77
50518;BME280;37075;44.084;2.962;2024-01-06T07:41:23;97047.56;;;5.12;61.85
50518;BME280;37075;44.084;2.962;2024-01-06T07:44:09;97055.06;;;5.15;61.56
50518;BME280;37075;44.084;2.962;2024-01-06T07:46:55;97057.75;;;5.15;61.74
50518;BME280;37075;44.084;2.962;2024-01-06T07:49:41;97056.47;;;5.04;61.71
50518;BME280;37075;44.084;2.962;2024-01-06T07:52:27;97061.41;;;5.10;61.53
50518;BME280;37075;44.084;2.962;2024-01-06T07:55:14;97082.59;;;5.25;60.74
50518;BME280;37075;44.084;2.962;2024-01-06T07:58:00;97065.13;;;5.32;61.19
50518;BME280;37075;44.084;2.962;2024-01-06T08:00:47;97071.81;;;5.43;59.66
50518;BME280;37075;44.084;2.962;2024-01-06T08:03:33;97057.50;;;5.42;59.89
50518;BME280;37075;44.084;2.962;2024-01-06T08:06:19;97053.03;;;5.46;59.47
50518;BME280;37075;44.084;2.962;2024-01-06T08:09:05;97074.66;;;5.46;59.32
50518;BME280;37075;44.084;2.962;2024-01-06T08:11:54;97077.09;;;5.56;58.67
50518;BME280;37075;44.084;2.962;2024-01-06T08:14:41;97083.13;;;5.62;58.99
50518;BME280;37075;44.084;2.962;2024-01-06T08:17:27;97086.97;;;5.70;58.56
50518;BME280;37075;44.084;2.962;2024-01-06T08:20:13;97080.78;;;5.78;58.59
50518;BME280;37075;44.084;2.962;2024-01-06T08:22:59;97083.47;;;5.86;58.38
50518;BME280;37075;44.084;2.962;2024-01-06T08:25:45;97086.19;;;5.86;58.11
50518;BME280;37075;44.084;2.962;2024-01-06T08:28:33;97091.28;;;5.88;57.96
50518;BME280;37075;44.084;2.962;2024-01-06T08:31:19;97077.94;;;5.92;58.07
50518;BME280;37075;44.084;2.962;2024-01-06T08:34:07;97098.63;;;5.96;58.19
50518;BME280;37075;44.084;2.962;2024-01-06T08:36:53;97098.00;;;5.99;57.86
50518;BME280;37075;44.084;2.962;2024-01-06T08:39:39;97095.94;;;6.05;57.53
50518;BME280;37075;44.084;2.962;2024-01-06T08:42:25;97098.31;;;6.15;57.67
50518;BME280;37075;44.084;2.962;2024-01-06T08:45:13;97095.09;;;6.22;57.80
50518;BME280;37075;44.084;2.962;2024-01-06T08:48:00;97104.34;;;6.29;57.92
50518;BME280;37075;44.084;2.962;2024-01-06T08:50:46;97108.81;;;6.34;56.97
50518;BME280;37075;44.084;2.962;2024-01-06T08:53:32;97103.22;;;6.39;57.46
50518;BME280;37075;44.084;2.962;2024-01-06T08:56:17;97099.53;;;6.43;56.66
50518;BME280;37075;44.084;2.962;2024-01-06T08:59:03;97100.97;;;6.49;56.49
50518;BME280;37075;44.084;2.962;2024-01-06T09:01:51;97086.47;;;6.54;56.33
50518;BME280;37075;44.084;2.962;2024-01-06T09:04:37;97098.09;;;6.55;57.15
50518;BME280;37075;44.084;2.962;2024-01-06T09:07:23;97085.69;;;6.54;55.76
50518;BME280;37075;44.084;2.962;2024-01-06T09:10:10;97101.59;;;6.55;55.58
50518;BME280;37075;44.084;2.962;2024-01-06T09:12:56;97099.53;;;6.52;55.95
50518;BME280;37075;44.084;2.962;2024-01-06T09:15:43;97104.00;;;6.48;55.89
50518;BME280;37075;44.084;2.962;2024-01-06T09:18:30;97110.53;;;6.56;56.16
50518;BME280;37075;44.084;2.962;2024-01-06T09:21:16;97100.78;;;6.63;56.32
50518;BME280;37075;44.084;2.962;2024-01-06T09:24:03;97106.66;;;6.65;56.31
50518;BME280;37075;44.084;2.962;2024-01-06T09:26:50;97105.09;;;6.64;56.19
50518;BME280;37075;44.084;2.962;2024-01-06T09:29:36;97112.41;;;6.64;55.98
50518;BME280;37075;44.084;2.962;2024-01-06T09:32:23;97101.56;;;6.64;56.02
50518;BME280;37075;44.084;2.962;2024-01-06T09:35:10;97105.09;;;6.64;56.26
50518;BME280;37075;44.084;2.962;2024-01-06T09:37:56;97104.59;;;6.62;56.07
50518;BME280;37075;44.084;2.962;2024-01-06T09:40:43;97122.59;;;6.67;55.25
50518;BME280;37075;44.084;2.962;2024-01-06T09:43:30;97121.94;;;6.78;55.48
50518;BME280;37075;44.084;2.962;2024-01-06T09:46:23;97124.31;;;6.89;55.07
50518;BME280;37075;44.084;2.962;2024-01-06T09:49:10;97138.47;;;7.03;55.45
50518;BME280;37075;44.084;2.962;2024-01-06T09:52:00;97159.31;;;7.11;55.38
50518;BME280;37075;44.084;2.962;2024-01-06T09:54:51;97148.94;;;7.13;54.66
50518;BME280;37075;44.084;2.962;2024-01-06T09:57:37;97151.16;;;7.20;55.37
50518;BME280;37075;44.084;2.962;2024-01-06T10:00:24;97150.50;;;7.23;55.07
50518;BME280;37075;44.084;2.962;2024-01-06T10:03:10;97154.78;;;7.24;54.41
50518;BME280;37075;44.084;2.962;2024-01-06T10:05:57;97143.78;;;7.29;54.58
50518;BME280;37075;44.084;2.962;2024-01-06T10:08:49;97152.22;;;7.27;54.14
50518;BME280;37075;44.084;2.962;2024-01-06T10:11:36;97138.38;;;7.29;54.73
50518;BME280;37075;44.084;2.962;2024-01-06T10:14:25;97136.28;;;7.26;54.54
50518;BME280;37075;44.084;2.962;2024-01-06T10:17:11;97137.41;;;7.25;54.73
50518;BME280;37075;44.084;2.962;2024-01-06T10:19:59;97134.34;;;7.26;54.72
50518;BME280;37075;44.084;2.962;2024-01-06T10:22:46;97134.19;;;7.31;55.05
50518;BME280;37075;44.084;2.962;2024-01-06T10:25:34;97133.34;;;7.39;55.34
50518;BME280;37075;44.084;2.962;2024-01-06T10:28:20;97135.22;;;7.48;54.80
50518;BME280;37075;44.084;2.962;2024-01-06T10:31:08;97117.94;;;7.52;54.39
50518;BME280;37075;44.084;2.962;2024-01-06T10:33:54;97130.69;;;7.60;54.67
50518;BME280;37075;44.084;2.962;2024-01-06T10:36:40;97139.69;;;7.73;53.65
50518;BME280;37075;44.084;2.962;2024-01-06T10:39:27;97137.59;;;7.79;53.11
50518;BME280;37075;44.084;2.962;2024-01-06T10:42:15;97156.34;;;7.92;53.88
50518;BME280;37075;44.084;2.962;2024-01-06T10:45:03;97149.81;;;7.93;52.99
50518;BME280;37075;44.084;2.962;2024-01-06T10:47:53;97157.28;;;7.96;52.46
50518;BME280;37075;44.084;2.962;2024-01-06T10:50:41;97143.50;;;8.01;53.30
50518;BME280;37075;44.084;2.962;2024-01-06T10:53:29;97142.34;;;8.11;53.25
50518;BME280;37075;44.084;2.962;2024-01-06T10:56:16;97151.06;;;8.17;53.43
50518;BME280;37075;44.084;2.962;2024-01-06T10:59:04;97143.31;;;8.27;53.09
50518;BME280;37075;44.084;2.962;2024-01-06T11:01:52;97140.09;;;8.34;52.01
50518;BME280;37075;44.084;2.962;2024-01-06T11:04:40;97140.81;;;8.43;53.17
50518;BME280;37075;44.084;2.962;2024-01-06T11:07:27;97149.78;;;8.56;52.54
50518;BME280;37075;44.084;2.962;2024-01-06T11:10:15;97143.56;;;8.55;52.09
50518;BME280;37075;44.084;2.962;2024-01-06T11:13:09;97141.13;;;8.62;51.76
50518;BME280;37075;44.084;2.962;2024-01-06T11:15:58;97154.44;;;8.55;51.77
50518;BME280;37075;44.084;2.962;2024-01-06T11:18:44;97152.19;;;8.57;51.93
50518;BME280;37075;44.084;2.962;2024-01-06T11:21:33;97151.38;;;8.57;51.64
50518;BME280;37075;44.084;2.962;2024-01-06T11:24:20;97162.06;;;8.62;52.08
50518;BME280;37075;44.084;2.962;2024-01-06T11:27:06;97147.81;;;8.65;52.10
50518;BME280;37075;44.084;2.962;2024-01-06T11:29:54;97145.00;;;8.74;52.55
50518;BME280;37075;44.084;2.962;2024-01-06T11:32:42;97142.06;;;8.79;52.37
50518;BME280;37075;44.084;2.962;2024-01-06T11:35:31;97147.50;;;8.79;51.71
50518;BME280;37075;44.084;2.962;2024-01-06T11:38:18;97143.88;;;8.75;51.60
50518;BME280;37075;44.084;2.962;2024-01-06T11:41:06;97139.56;;;8.74;52.19
50518;BME280;37075;44.084;2.962;2024-01-06T11:43:53;97136.25;;;8.68;52.03
50518;BME280;37075;44.084;2.962;2024-01-06T11:46:40;97123.59;;;8.72;51.79
50518;BME280;37075;44.084;2.962;2024-01-06T11:49:29;97128.00;;;8.77;52.46
50518;BME280;37075;44.084;2.962;2024-01-06T11:52:16;97120.31;;;8.79;51.71
50518;BME280;37075;44.084;2.962;2024-01-06T11:55:02;97126.31;;;8.84;52.08
50518;BME280;37075;44.084;2.962;2024-01-06T11:57:48;97124.09;;;8.86;51.96
50518;BME280;37075;44.084;2.962;2024-01-06T12:00:35;97119.28;;;8.83;51.87
50518;BME280;37075;44.084;2.962;2024-01-06T12:03:23;97117.50;;;8.87;52.01
50518;BME280;37075;44.084;2.962;2024-01-06T12:06:12;97115.59;;;8.88;51.54
50518;BME280;37075;44.084;2.962;2024-01-06T12:09:05;97110.34;;;8.83;51.52
50518;BME280;37075;44.084;2.962;2024-01-06T12:12:01;97099.69;;;8.78;51.30
50518;BME280;37075;44.084;2.962;2024-01-06T12:14:47;97099.69;;;8.78;51.59
50518;BME280;37075;44.084;2.962;2024-01-06T12:17:34;97115.88;;;8.74;51.46
50518;BME280;37075;44.084;2.962;2024-01-06T12:20:21;97104.31;;;8.65;51.12
50518;BME280;37075;44.084;2.962;2024-01-06T12:23:09;97098.75;;;8.61;51.63
50518;BME280;37075;44.084;2.962;2024-01-06T12:25:55;97103.53;;;8.64;51.65
50518;BME280;37075;44.084;2.962;2024-01-06T12:28:44;97101.03;;;8.59;52.22
50518;BME280;37075;44.084;2.962;2024-01-06T12:31:30;97100.22;;;8.59;52.00
50518;BME280;37075;44.084;2.962;2024-01-06T12:34:18;97101.75;;;8.48;51.75
50518;BME280;37075;44.084;2.962;2024-01-06T12:37:05;97092.47;;;8.49;52.32
50518;BME280;37075;44.084;2.962;2024-01-06T12:39:53;97101.09;;;8.51;52.37
50518;BME280;37075;44.084;2.962;2024-01-06T12:42:40;97091.59;;;8.57;52.30
50518;BME280;37075;44.084;2.962;2024-01-06T12:45:26;97092.88;;;8.59;52.48
50518;BME280;37075;44.084;2.962;2024-01-06T12:48:13;97105.19;;;8.57;52.65
50518;BME280;37075;44.084;2.962;2024-01-06T12:50:59;97108.50;;;8.62;52.83
50518;BME280;37075;44.084;2.962;2024-01-06T12:53:45;97096.94;;;8.65;52.70
50518;BME280;37075;44.084;2.962;2024-01-06T12:56:33;97089.25;;;8.68;52.58
50518;BME280;37075;44.084;2.962;2024-01-06T12:59:19;97096.69;;;8.58;52.19
50518;BME280;37075;44.084;2.962;2024-01-06T13:02:05;97090.59;;;8.61;52.38
50518;BME280;37075;44.084;2.962;2024-01-06T13:04:51;97093.31;;;8.61;52.25
50518;BME280;37075;44.084;2.962;2024-01-06T13:07:38;97098.31;;;8.59;52.41
50518;BME280;37075;44.084;2.962;2024-01-06T13:10:24;97103.59;;;8.56;52.60
50518;BME280;37075;44.084;2.962;2024-01-06T13:13:12;97106.66;;;8.54;52.86
50518;BME280;37075;44.084;2.962;2024-01-06T13:15:59;97089.72;;;8.70;52.95
50518;BME280;37075;44.084;2.962;2024-01-06T13:18:46;97090.06;;;8.80;52.94
50518;BME280;37075;44.084;2.962;2024-01-06T13:21:32;97104.00;;;8.79;52.76
50518;BME280;37075;44.084;2.962;2024-01-06T13:24:20;97088.13;;;8.81;52.79
50518;BME280;37075;44.084;2.962;2024-01-06T13:27:06;97082.50;;;8.86;52.57
50518;BME280;37075;44.084;2.962;2024-01-06T13:29:54;97094.63;;;8.88;52.60
50518;BME280;37075;44.084;2.962;2024-01-06T13:32:40;97084.28;;;8.70;51.91
50518;BME280;37075;44.084;2.962;2024-01-06T13:35:26;97092.44;;;8.70;51.94
50518;BME280;37075;44.084;2.962;2024-01-06T13:38:13;97076.69;;;8.63;52.18
50518;BME280;37075;44.084;2.962;2024-01-06T13:41:00;97077.34;;;8.60;51.96
50518;BME280;37075;44.084;2.962;2024-01-06T13:43:48;97080.53;;;8.62;52.30
50518;BME280;37075;44.084;2.962;2024-01-06T13:46:36;97086.09;;;8.65;52.27
50518;BME280;37075;44.084;2.962;2024-01-06T13:49:23;97080.66;;;8.65;52.40
50518;BME280;37075;44.084;2.962;2024-01-06T13:52:09;97075.09;;;8.62;52.31
50518;BME280;37075;44.084;2.962;2024-01-06T13:54:55;97082.13;;;8.63;52.75
50518;BME280;37075;44.084;2.962;2024-01-06T13:57:41;97075.44;;;8.73;52.68
50518;BME280;37075;44.084;2.962;2024-01-06T14:00:27;97081.31;;;8.62;52.50
50518;BME280;37075;44.084;2.962;2024-01-06T14:03:14;97095.59;;;8.59;52.38
50518;BME280;37075;44.084;2.962;2024-01-06T14:06:00;97100.81;;;8.64;52.48
50518;BME280;37075;44.084;2.962;2024-01-06T14:08:47;97103.63;;;8.68;52.39
50518;BME280;37075;44.084;2.962;2024-01-06T14:11:33;97113.72;;;8.68;52.59
50518;BME280;37075;44.084;2.962;2024-01-06T14:14:19;97114.28;;;8.73;52.76
50518;BME280;37075;44.084;2.962;2024-01-06T14:17:05;97121.31;;;8.74;52.81
50518;BME280;37075;44.084;2.962;2024-01-06T14:19:53;97121.56;;;8.81;52.83
50518;BME280;37075;44.084;2.962;2024-01-06T14:22:39;97127.00;;;8.81;52.82
50518;BME280;37075;44.084;2.962;2024-01-06T14:25:25;97120.75;;;8.81;52.74
50518;BME280;37075;44.084;2.962;2024-01-06T14:28:11;97114.66;;;8.84;52.48
50518;BME280;37075;44.084;2.962;2024-01-06T14:30:57;97127.56;;;8.75;52.26
50518;BME280;37075;44.084;2.962;2024-01-06T14:33:44;97120.97;;;8.63;52.47
50518;BME280;37075;44.084;2.962;2024-01-06T14:36:31;97133.53;;;8.68;52.15
50518;BME280;37075;44.084;2.962;2024-01-06T14:39:17;97135.41;;;8.55;52.41
50518;BME280;37075;44.084;2.962;2024-01-06T14:42:06;97127.13;;;8.52;52.51
50518;BME280;37075;44.084;2.962;2024-01-06T14:44:52;97115.31;;;8.36;52.58
50518;BME280;37075;44.084;2.962;2024-01-06T14:47:39;97125.06;;;8.28;52.80
50518;BME280;37075;44.084;2.962;2024-01-06T14:50:25;97118.28;;;8.43;52.78
50518;BME280;37075;44.084;2.962;2024-01-06T14:53:13;97114.56;;;8.47;52.50